Time;durP1;ratioP1;P1;durP2;ratioP2;P2;SDS_P1;SDS_P2;PMS_P1;PMS_P2;Temp;Humidity;BMP_temperature;BMP_pressure;BME280_temperature;BME280_humidity;BME280_pressure;Samples;Min_cycle;Max_cycle;Signal;HPM_P1;HPM_P2
2023/06/18 00:02:00;;;;;;;;;14.67;12.33;;;;;28.55;40.67;69021.41;5005469;28;45590;-80
2023/06/18 00:04:25;;;;;;;;;18.33;18.33;;;;;28.54;40.79;69031.72;5005057;28;46031;-80
2023/06/18 00:06:52;;;;;;;;;16.33;16.33;;;;;28.29;40.45;68961.34;4998771;28;45363;-80
2023/06/18 00:09:17;;;;;;;;;20.00;16.33;;;;;28.49;40.94;69061.16;4989311;28;45801;-80
2023/06/18 00:11:43;;;;;;;;;12.00;12.00;;;;;28.41;41.03;68924.41;5005666;28;45500;-80
2023/06/18 00:14:08;;;;;;;;;16.33;16.33;;;;;28.39;41.27;68903.00;5007096;28;46180;-80
2023/06/18 00:16:33;;;;;;;;;19.00;16.00;;;;;28.24;41.31;68882.59;5008906;28;45422;-80
2023/06/18 00:18:59;;;;;;;;;17.67;17.00;;;;;28.39;41.26;68946.53;5006650;28;45398;-80
2023/06/18 00:21:24;;;;;;;;;18.33;16.33;;;;;28.35;41.52;68908.56;4998453;28;45401;-80
2023/06/18 00:23:50;;;;;;;;;16.67;16.33;;;;;28.35;41.91;68914.63;5014091;28;45541;-80
2023/06/18 00:26:15;;;;;;;;;15.00;15.00;;;;;28.38;41.48;68877.34;5000251;28;45502;-80
2023/06/18 00:28:40;;;;;;;;;16.00;16.00;;;;;28.33;41.54;68843.66;4993102;28;45653;-80
2023/06/18 00:31:07;;;;;;;;;16.67;16.67;;;;;28.24;41.84;68827.59;5000880;28;45554;-80
2023/06/18 00:33:33;;;;;;;;;18.33;17.33;;;;;28.36;41.77;68790.66;5000542;28;47419;-80
2023/06/18 00:35:59;;;;;;;;;19.33;17.00;;;;;28.33;41.65;68773.53;5004495;28;45975;-80
2023/06/18 00:38:27;;;;;;;;;16.67;16.00;;;;;28.36;41.37;68825.44;5005500;28;45855;-80
2023/06/18 00:40:52;;;;;;;;;17.33;16.00;;;;;28.29;41.61;68792.72;5001111;28;45621;-80
2023/06/18 00:43:18;;;;;;;;;17.00;17.00;;;;;28.20;42.00;68742.50;5009151;28;46617;-80
2023/06/18 00:45:45;;;;;;;;;14.67;14.00;;;;;28.14;42.18;68715.78;4998776;28;45356;-80
2023/06/18 00:48:12;;;;;;;;;21.00;15.33;;;;;28.24;41.95;68714.00;4997834;28;45495;-80
2023/06/18 00:50:40;;;;;;;;;16.00;16.00;;;;;28.31;41.99;68681.44;5004772;28;45454;-80
2023/06/18 00:53:07;;;;;;;;;17.00;16.67;;;;;28.38;42.39;68569.41;4999071;28;46098;-80
2023/06/18 00:55:36;;;;;;;;;16.33;16.33;;;;;28.37;42.25;68570.94;4999926;28;45696;-80
2023/06/18 00:58:03;;;;;;;;;19.00;18.67;;;;;28.25;42.75;68516.06;4997195;28;45531;-80
2023/06/18 01:03:06;;;;;;;;;23.00;21.67;;;;;27.53;57.01;-12790.75;5905361;22;46056;-72
2023/06/18 01:05:33;;;;;;;;;25.00;22.33;;;;;27.06;60.83;-19924.69;4930711;28;45454;-72
2023/06/18 01:08:00;;;;;;;;;28.00;23.67;;;;;26.83;63.58;-19918.88;4933015;28;45505;-72
2023/06/18 01:10:29;;;;;;;;;21.33;20.33;;;;;26.63;64.04;-19913.59;4934306;28;45493;-73
2023/06/18 01:12:58;;;;;;;;;28.00;24.67;;;;;26.48;65.04;-19909.75;4933955;28;46575;-73
2023/06/18 01:15:27;;;;;;;;;23.33;23.33;;;;;26.33;63.23;-19905.91;4933559;28;45423;-73
2023/06/18 01:17:56;;;;;;;;;24.00;23.00;;;;;25.98;63.20;-19896.78;4934457;28;45454;-73
2023/06/18 01:20:25;;;;;;;;;26.33;26.33;;;;;26.09;65.61;-19899.72;4934594;28;45453;-73
2023/06/18 01:22:57;;;;;;;;;26.67;25.33;;;;;26.03;68.15;-19898.25;4933100;28;46184;-73
2023/06/18 01:25:29;;;;;;;;;25.67;22.67;;;;;25.92;67.67;-19895.22;4934480;28;45485;-73
2023/06/18 01:27:56;;;;;;;;;29.67;22.67;;;;;25.86;66.02;-19893.75;4933236;28;45657;-73
2023/06/18 01:30:22;;;;;;;;;24.33;22.67;;;;;25.66;68.52;-19888.72;4933672;28;45704;-73
2023/06/18 01:32:47;;;;;;;;;24.00;23.00;;;;;25.58;67.73;-19886.47;4933174;28;46001;-73
2023/06/18 01:35:15;;;;;;;;;24.33;23.00;;;;;25.58;68.52;-19886.59;4932883;28;47915;-73
2023/06/18 01:38:17;;;;;;;;;26.00;23.33;;;;;25.64;70.30;-19888.06;4932374;28;45736;-73
2023/06/18 01:40:55;;;;;;;;;25.33;25.00;;;;;25.64;71.47;-19888.06;4932603;28;45530;-73
2023/06/18 01:43:30;;;;;;;;;34.00;28.33;;;;;25.58;74.41;-19886.47;4931781;28;46720;-73
2023/06/18 01:46:06;;;;;;;;;23.00;23.00;;;;;25.46;77.03;-19447.34;4932350;28;45736;-73
2023/06/18 01:48:39;;;;;;;;;26.33;26.33;;;;;25.40;77.37;-16655.13;4930121;28;45815;-73
2023/06/18 01:51:08;;;;;;;;;27.33;26.33;;;;;25.34;77.59;-13400.28;4933750;28;45681;-73
2023/06/18 01:53:35;;;;;;;;;28.67;25.33;;;;;25.31;80.34;15100.88;4933244;28;46498;-73
2023/06/18 01:56:02;;;;;;;;;30.00;28.67;;;;;25.30;81.28;27855.75;4934079;28;45399;-73
2023/06/18 01:58:31;;;;;;;;;28.67;23.67;;;;;25.26;81.25;27368.88;4933608;28;45532;-73
2023/06/18 02:00:58;;;;;;;;;28.33;25.00;;;;;25.15;81.49;32138.38;4932832;28;45513;-73
2023/06/18 02:03:24;;;;;;;;;28.67;22.67;;;;;25.14;82.86;52993.66;4926377;28;47293;-73
2023/06/18 02:05:50;;;;;;;;;30.00;26.00;;;;;25.05;83.20;60275.06;4935998;28;45468;-73
2023/06/18 02:08:15;;;;;;;;;27.33;27.33;;;;;25.03;84.52;70948.72;4919084;28;45471;-73
2023/06/18 02:10:41;;;;;;;;;28.33;27.00;;;;;25.09;84.74;76677.53;4937620;28;45396;-72
2023/06/18 02:13:06;;;;;;;;;30.00;28.67;;;;;25.15;83.55;63415.44;4918478;28;46212;-72
2023/06/18 02:15:32;;;;;;;;;28.33;28.00;;;;;25.21;85.28;87424.72;4970344;28;45382;-72
2023/06/18 02:17:57;;;;;;;;;24.33;23.67;;;;;25.16;84.76;78094.25;4935617;28;45501;-72
2023/06/18 02:20:22;;;;;;;;;23.67;22.67;;;;;24.99;83.36;56407.31;4935846;28;45428;-72
2023/06/18 02:22:49;;;;;;;;;21.00;16.67;;;;;25.25;82.59;42667.75;4935633;28;46130;-72
2023/06/18 02:25:18;;;;;;;;;18.67;17.00;;;;;25.22;81.53;6851.94;4934783;28;45477;-72
2023/06/18 02:27:57;;;;;;;;;16.33;13.33;;;;;25.17;79.32;-18651.59;4935544;28;45552;-72
2023/06/18 02:30:29;;;;;;;;;7.67;6.00;;;;;25.14;78.92;-19875.06;4912342;28;46068;-72
2023/06/18 02:32:54;;;;;;;;;13.00;13.00;;;;;25.00;78.22;-19871.50;4918580;28;46245;-72
2023/06/18 02:35:20;;;;;;;;;15.00;12.33;;;;;25.05;78.58;-19872.97;4935284;28;45528;-72
2023/06/18 02:37:46;;;;;;;;;9.00;9.00;;;;;25.01;78.90;-19871.78;4936131;28;45358;-72
2023/06/18 02:40:13;;;;;;;;;8.33;6.67;;;;;24.96;77.51;-19870.56;4935532;28;45624;-73
2023/06/18 02:42:46;;;;;;;;;11.00;10.00;;;;;24.94;76.86;-19869.91;4935353;28;46253;-72
2023/06/18 02:45:13;;;;;;;;;10.33;9.00;;;;;24.92;76.07;-19869.38;4936245;28;45367;-72
2023/06/18 02:47:38;;;;;;;;;9.33;9.33;;;;;24.83;77.75;-19867.13;4936244;28;45431;-72
2023/06/18 02:50:05;;;;;;;;;7.33;7.33;;;;;24.89;78.13;-19868.59;4936650;28;45664;-72
2023/06/18 02:52:30;;;;;;;;;6.00;6.00;;;;;24.79;78.78;-19866.06;4918613;28;46945;-72
2023/06/18 02:54:55;;;;;;;;;7.00;7.00;;;;;24.81;79.27;-13023.88;4935512;28;47375;-72
2023/06/18 02:57:21;;;;;;;;;7.00;7.00;;;;;24.83;79.51;-6247.81;4935596;28;45497;-72
2023/06/18 02:59:46;;;;;;;;;8.33;8.33;;;;;24.81;78.83;-19777.38;4936520;28;45647;-72
2023/06/18 03:02:12;;;;;;;;;5.33;4.33;;;;;24.75;78.18;-19865.16;4918593;28;47011;-72
2023/06/18 03:04:37;;;;;;;;;10.00;9.00;;;;;24.76;78.94;-19865.28;4935554;28;45614;-72
2023/06/18 03:07:03;;;;;;;;;9.33;7.33;;;;;24.76;77.66;-19865.28;4935698;28;45378;-72
2023/06/18 03:09:28;;;;;;;;;8.33;7.00;;;;;24.76;76.96;-19865.41;4936482;28;45413;-72
2023/06/18 03:11:54;;;;;;;;;9.00;9.00;;;;;24.75;77.19;-19865.16;4910481;28;46308;-72
2023/06/18 03:14:21;;;;;;;;;10.33;10.33;;;;;24.73;77.47;-19864.63;4916419;28;45451;-72
2023/06/18 03:16:47;;;;;;;;;10.33;9.33;;;;;24.74;78.09;-19864.75;4917038;28;45375;-72
2023/06/18 03:19:12;;;;;;;;;9.00;9.00;;;;;24.60;79.31;-17450.56;4927115;28;45681;-72
2023/06/18 03:21:39;;;;;;;;;14.00;10.33;;;;;24.68;76.89;-19863.28;4935928;28;46090;-73
2023/06/18 03:24:05;;;;;;;;;10.00;10.00;;;;;24.70;76.82;-19863.69;4936256;28;45327;-72
2023/06/18 03:26:31;;;;;;;;;12.33;10.00;;;;;24.68;77.78;-19863.28;4918508;28;45916;-72
2023/06/18 03:28:58;;;;;;;;;8.00;8.00;;;;;24.60;77.49;-19861.16;4936045;28;45571;-73
2023/06/18 03:31:24;;;;;;;;;9.67;9.00;;;;;24.66;77.13;-19862.63;4918952;28;47421;-72
2023/06/18 03:33:49;;;;;;;;;7.00;7.00;;;;;24.63;76.54;-19862.09;4935692;28;45843;-72
2023/06/18 03:36:17;;;;;;;;;5.67;5.67;;;;;24.67;76.98;-19863.03;4936053;28;45501;-72
2023/06/18 03:38:45;;;;;;;;;5.67;5.67;;;;;24.61;76.77;-19861.44;4936035;28;45467;-72
2023/06/18 03:41:11;;;;;;;;;6.00;4.67;;;;;24.66;77.24;-19862.63;4935638;28;47540;-72
2023/06/18 03:43:36;;;;;;;;;5.67;5.00;;;;;24.70;77.15;-19863.69;4935659;28;45872;-72
2023/06/18 03:46:02;;;;;;;;;5.33;5.33;;;;;24.69;76.31;-19863.56;4903025;28;45565;-72
2023/06/18 03:48:27;;;;;;;;;5.00;5.00;;;;;24.68;75.05;-19863.16;4935446;28;45402;-72
2023/06/18 03:50:52;;;;;;;;;6.33;6.00;;;;;24.56;75.75;-19860.09;4935324;28;48009;-73
2023/06/18 03:53:18;;;;;;;;;6.67;5.00;;;;;24.64;76.33;-19862.22;4935547;28;45451;-73
2023/06/18 03:55:43;;;;;;;;;9.00;6.33;;;;;24.63;75.81;-19861.97;4935730;28;46023;-73
2023/06/18 03:58:08;;;;;;;;;4.00;4.00;;;;;24.60;74.95;-19861.16;4936173;28;45329;-72
2023/06/18 04:00:34;;;;;;;;;6.00;6.00;;;;;24.61;74.38;-19861.44;4935093;28;46469;-73
2023/06/18 04:03:00;;;;;;;;;6.00;5.00;;;;;24.61;75.24;-19861.56;4935045;28;45415;-73
2023/06/18 04:05:25;;;;;;;;;6.33;5.33;;;;;24.49;74.91;-19858.38;4936069;28;45531;-73
2023/06/18 04:07:50;;;;;;;;;6.00;6.00;;;;;24.58;75.39;-19860.78;4936047;28;45406;-73
2023/06/18 04:10:15;;;;;;;;;5.00;5.00;;;;;24.58;75.94;-19860.63;4935249;28;47001;-73
2023/06/18 04:12:41;;;;;;;;;7.33;7.00;;;;;24.51;75.13;-19858.78;4903639;28;45423;-73
2023/06/18 04:15:07;;;;;;;;;5.00;5.00;;;;;24.59;73.92;-19861.03;4916449;28;45502;-73
2023/06/18 04:17:39;;;;;;;;;6.67;5.00;;;;;24.54;75.42;-19859.59;4916530;28;45430;-73
2023/06/18 04:20:06;;;;;;;;;6.33;4.67;;;;;24.53;75.00;-19859.31;4927352;28;47338;-73
2023/06/18 04:22:31;;;;;;;;;5.00;4.00;;;;;24.57;75.39;-19860.38;4935086;28;45391;-73
2023/06/18 04:24:56;;;;;;;;;5.33;5.33;;;;;24.56;75.10;-19860.09;4928717;28;45452;-73
2023/06/18 04:27:22;;;;;;;;;4.00;4.00;;;;;24.24;75.41;-19851.88;4934300;28;45531;-73
2023/06/18 04:29:47;;;;;;;;;5.00;5.00;;;;;24.32;74.41;-19853.88;4935241;28;45454;-73
2023/06/18 04:32:12;;;;;;;;;5.00;5.00;;;;;24.50;75.96;-19858.53;4917816;28;45379;-73
2023/06/18 04:34:38;;;;;;;;;5.00;5.00;;;;;24.54;76.70;-19859.72;4935030;28;45659;-73
2023/06/18 04:37:04;;;;;;;;;6.00;5.00;;;;;24.48;76.10;-19858.00;4935276;28;45521;-73
2023/06/18 04:39:29;;;;;;;;;5.67;3.33;;;;;24.55;75.90;-19859.97;4934650;28;46568;-73
2023/06/18 04:41:54;;;;;;;;;5.00;4.00;;;;;24.54;75.67;-19859.72;4934773;28;45528;-73
2023/06/18 04:44:20;;;;;;;;;7.67;5.00;;;;;24.54;76.38;-19859.59;4935199;28;45989;-73
2023/06/18 04:46:45;;;;;;;;;4.00;4.00;;;;;24.54;77.66;-19859.72;4917939;28;45373;-73
2023/06/18 04:49:11;;;;;;;;;7.00;4.00;;;;;24.57;76.14;-19860.50;4917575;28;47026;-73
2023/06/18 04:51:39;;;;;;;;;4.00;4.00;;;;;24.58;75.21;-19860.63;4917677;28;45591;-73
2023/06/18 04:54:04;;;;;;;;;1.67;1.67;;;;;24.53;75.38;-19859.31;4935319;28;45411;-73
2023/06/18 04:56:30;;;;;;;;;5.00;3.67;;;;;24.56;75.00;-19860.25;4917637;28;45875;-73
2023/06/18 04:58:55;;;;;;;;;6.00;6.00;;;;;24.58;74.87;-19860.78;4917408;28;48314;-73
2023/06/18 05:01:21;;;;;;;;;5.67;4.00;;;;;24.59;75.66;-19861.03;4917780;28;45463;-73
2023/06/18 05:03:46;;;;;;;;;5.67;4.67;;;;;24.51;75.24;-19858.91;4934743;28;45506;-73
2023/06/18 05:06:12;;;;;;;;;5.00;5.00;;;;;24.60;75.02;-19861.31;4934969;28;45387;-73
2023/06/18 05:08:38;;;;;;;;;9.00;9.00;;;;;24.63;75.03;-19861.97;4934814;28;46082;-73
2023/06/18 05:11:03;;;;;;;;;7.33;7.33;;;;;24.64;75.53;-19862.38;4932935;28;45484;-73
2023/06/18 05:13:28;;;;;;;;;9.33;6.00;;;;;24.64;75.95;-19862.38;4915775;28;45693;-73
2023/06/18 05:15:54;;;;;;;;;9.67;6.33;;;;;24.68;75.56;-19863.16;4898698;28;45392;-72
2023/06/18 05:18:19;;;;;;;;;4.67;4.67;;;;;24.68;75.56;-19863.16;4908237;28;46054;-73
2023/06/18 05:20:45;;;;;;;;;3.67;3.67;;;;;24.68;74.90;-19863.16;4917709;28;45458;-72
2023/06/18 05:23:11;;;;;;;;;7.33;7.00;;;;;24.59;74.41;-19861.03;4934745;28;45783;-72
2023/06/18 05:25:37;;;;;;;;;6.00;6.00;;;;;24.72;75.31;-19864.34;4934828;28;45535;-73
2023/06/18 05:28:04;;;;;;;;;6.33;4.67;;;;;24.74;74.02;-19864.88;4934148;28;46322;-73
2023/06/18 05:30:30;;;;;;;;;4.00;4.00;;;;;24.78;74.18;-19865.81;4933897;28;45418;-73
2023/06/18 05:32:55;;;;;;;;;5.33;5.33;;;;;24.79;74.34;-19866.06;4934791;28;45489;-72
2023/06/18 05:35:21;;;;;;;;;5.00;5.00;;;;;24.83;74.10;-19867.13;4935043;28;45445;-72
2023/06/18 05:37:46;;;;;;;;;6.00;5.67;;;;;24.85;74.26;-19867.66;4934197;28;45339;-73
2023/06/18 05:40:11;;;;;;;;;6.67;6.00;;;;;24.86;73.16;-19867.94;4934563;28;45723;-73
2023/06/18 05:42:39;;;;;;;;;5.00;5.00;;;;;24.90;73.82;-19869.00;4917437;28;45728;-72
2023/06/18 05:45:05;;;;;;;;;6.33;6.00;;;;;24.96;73.52;-19870.44;4935067;28;45374;-72
2023/06/18 05:47:31;;;;;;;;;6.00;4.67;;;;;25.02;73.33;-19872.03;4916793;28;45552;-72
2023/06/18 05:49:56;;;;;;;;;6.33;6.33;;;;;25.04;74.33;-19872.69;4933653;28;45431;-73
2023/06/18 05:52:21;;;;;;;;;6.00;6.00;;;;;24.89;72.78;-19868.59;4934301;28;45500;-72
2023/06/18 05:54:47;;;;;;;;;6.00;6.00;;;;;25.13;72.99;-19874.81;4917574;28;45513;-73
2023/06/18 05:57:13;;;;;;;;;4.67;4.67;;;;;25.19;72.14;-19876.41;4916357;28;47712;-73
2023/06/18 05:59:39;;;;;;;;;5.00;5.00;;;;;25.27;71.92;-19878.53;4934316;28;45386;-73
2023/06/18 06:02:05;;;;;;;;;5.67;5.67;;;;;25.18;71.30;-19876.28;4933895;28;45479;-72
2023/06/18 06:04:30;;;;;;;;;7.33;5.67;;;;;25.30;70.71;-19879.31;4916789;28;45452;-72
2023/06/18 06:06:55;;;;;;;;;5.33;5.33;;;;;25.40;71.23;-19881.84;4933712;28;47131;-73
2023/06/18 06:09:21;;;;;;;;;5.67;5.67;;;;;25.42;70.48;-19882.50;4934142;28;45434;-73
2023/06/18 06:11:46;;;;;;;;;5.33;4.00;;;;;25.22;69.92;-19877.22;4932906;28;45541;-73
2023/06/18 06:14:11;;;;;;;;;7.00;5.33;;;;;25.47;69.78;-19883.69;4933763;28;45427;-73
2023/06/18 06:16:37;;;;;;;;;5.00;5.00;;;;;25.32;70.21;-19879.84;4933075;28;46364;-73
2023/06/18 06:19:02;;;;;;;;;4.33;4.33;;;;;25.58;69.35;-19886.47;4923606;28;45477;-73
2023/06/18 06:21:29;;;;;;;;;6.00;6.00;;;;;25.51;68.93;-19884.75;4914719;28;45376;-73
2023/06/18 06:23:56;;;;;;;;;5.00;5.00;;;;;25.55;68.84;-19885.81;4909044;28;45393;-73
2023/06/18 06:26:22;;;;;;;;;10.00;6.33;;;;;25.72;68.89;-19890.03;4930953;28;46138;-73
2023/06/18 06:28:47;;;;;;;;;6.00;5.33;;;;;25.76;69.27;-19891.25;4932986;28;45405;-73
2023/06/18 06:31:12;;;;;;;;;6.00;6.00;;;;;25.81;68.91;-19892.44;4932507;28;45925;-73
2023/06/18 06:33:38;;;;;;;;;7.00;5.67;;;;;25.80;69.06;-19892.16;4932682;28;45577;-73
2023/06/18 06:36:03;;;;;;;;;5.00;5.00;;;;;25.83;68.50;-19892.97;4932130;28;46202;-73
2023/06/18 06:38:29;;;;;;;;;6.00;6.00;;;;;25.94;68.04;-19895.88;4930000;28;45577;-73
2023/06/18 06:40:54;;;;;;;;;6.00;6.00;;;;;25.97;67.69;-19896.66;4932862;28;45569;-73
2023/06/18 06:43:19;;;;;;;;;6.00;6.00;;;;;25.88;67.31;-19894.41;4932203;28;45581;-73
2023/06/18 06:45:45;;;;;;;;;7.00;5.67;;;;;26.05;67.08;-19898.66;4932343;28;47180;-73
2023/06/18 06:48:10;;;;;;;;;7.00;6.33;;;;;26.06;66.59;-19899.03;4932712;28;52548;-73
2023/06/18 06:50:35;;;;;;;;;4.67;3.67;;;;;26.04;66.59;-19898.50;4935243;28;45450;-73
2023/06/18 06:53:01;;;;;;;;;5.00;5.00;;;;;25.95;65.26;-19896.13;4934911;28;45656;-73
2023/06/18 06:55:26;;;;;;;;;5.67;5.67;;;;;26.14;65.93;-19901.03;4935735;28;46352;-73
2023/06/18 06:57:51;;;;;;;;;8.00;6.00;;;;;26.22;66.87;-19903.16;4934952;28;46486;-73
2023/06/18 07:00:17;;;;;;;;;5.00;5.00;;;;;26.26;65.22;-19904.19;4935462;28;45410;-73
2023/06/18 07:02:42;;;;;;;;;5.67;3.00;;;;;26.29;64.96;-19904.88;4934494;28;45493;-73
2023/06/18 07:05:09;;;;;;;;;5.33;5.33;;;;;26.25;64.23;-19903.81;4935369;28;46395;-73
2023/06/18 07:07:35;;;;;;;;;5.33;5.33;;;;;26.21;64.67;-19902.75;4934623;28;45570;-73
2023/06/18 07:10:01;;;;;;;;;4.67;4.33;;;;;26.41;64.36;-19908.03;4935797;28;45789;-73
2023/06/18 07:12:27;;;;;;;;;8.67;7.33;;;;;26.46;63.84;-19909.34;4929805;28;45653;-73
2023/06/18 07:14:52;;;;;;;;;7.33;7.00;;;;;26.51;63.98;-19910.56;4933955;28;51758;-73
2023/06/18 07:17:17;;;;;;;;;6.00;6.00;;;;;26.51;63.25;-19910.69;4935055;28;45536;-73
2023/06/18 07:19:43;;;;;;;;;6.33;6.33;;;;;26.62;64.62;-19913.31;4936245;28;45460;-73
2023/06/18 07:22:08;;;;;;;;;8.67;8.00;;;;;26.69;64.32;-19915.19;4934910;28;45489;-73
2023/06/18 07:24:33;;;;;;;;;9.00;9.00;;;;;26.72;62.77;-19916.09;4934219;28;45661;-73
2023/06/18 07:26:59;;;;;;;;;10.33;10.33;;;;;26.68;63.32;-19915.03;4934958;28;45503;-73
2023/06/18 07:29:25;;;;;;;;;8.00;8.00;;;;;26.49;63.28;-19910.03;4902111;28;45402;-73
2023/06/18 07:31:50;;;;;;;;;12.67;10.33;;;;;26.89;62.47;-19920.47;4936184;28;45606;-73
2023/06/18 07:34:16;;;;;;;;;10.33;9.00;;;;;26.94;61.66;-19921.66;4935911;28;46280;-73
2023/06/18 07:36:42;;;;;;;;;10.33;9.00;;;;;26.98;62.61;-19922.56;4936089;28;45372;-73
2023/06/18 07:39:08;;;;;;;;;11.33;11.00;;;;;27.03;62.50;-19923.91;4935367;28;45504;-73
2023/06/18 07:41:33;;;;;;;;;9.00;9.00;;;;;27.04;61.55;-19924.16;4923182;28;45452;-73
2023/06/18 07:43:58;;;;;;;;;10.00;10.00;;;;;27.11;62.08;-19926.16;4935581;28;47800;-73
2023/06/18 07:46:24;;;;;;;;;7.67;7.67;;;;;27.07;61.45;-19924.97;4918359;28;45453;-73
2023/06/18 07:48:49;;;;;;;;;9.67;9.67;;;;;27.26;60.56;-19929.97;4935128;28;45391;-73
2023/06/18 07:51:15;;;;;;;;;9.00;8.33;;;;;27.33;60.96;-19931.81;4934822;28;45462;-73
2023/06/18 07:53:40;;;;;;;;;11.67;11.00;;;;;27.42;60.23;-19934.06;4934841;28;46093;-73
2023/06/18 07:56:05;;;;;;;;;8.33;8.33;;;;;27.47;59.84;-19935.25;4935767;28;45487;-73
2023/06/18 07:58:31;;;;;;;;;9.00;7.33;;;;;27.52;59.67;-19936.56;4935704;28;45410;-73
2023/06/18 08:00:56;;;;;;;;;8.67;8.67;;;;;27.44;59.66;-19934.47;4933760;28;45490;-73
2023/06/18 08:03:22;;;;;;;;;9.33;9.33;;;;;27.53;59.07;-19936.97;4917971;28;46286;-73
2023/06/18 08:05:48;;;;;;;;;11.00;11.00;;;;;27.59;59.25;-19938.44;4918361;28;45455;-73
2023/06/18 08:08:13;;;;;;;;;9.00;8.33;;;;;27.70;59.47;-19941.34;4918318;28;45540;-73
2023/06/18 08:10:39;;;;;;;;;10.67;9.00;;;;;27.77;59.10;-19943.03;4918018;28;45593;-73
2023/06/18 08:13:05;;;;;;;;;9.33;8.33;;;;;27.89;59.35;-19946.09;4935121;28;46298;-73
2023/06/18 08:15:30;;;;;;;;;9.00;8.00;;;;;27.94;58.91;-19947.41;4935459;28;45414;-73
2023/06/18 08:17:55;;;;;;;;;11.00;10.33;;;;;28.11;58.46;-19951.88;4934095;28;45626;-73
2023/06/18 08:20:21;;;;;;;;;9.00;9.00;;;;;28.15;58.04;-19952.81;4935460;28;45401;-73
2023/06/18 08:22:47;;;;;;;;;10.67;9.67;;;;;28.29;58.30;-19956.50;4934851;28;47576;-73
2023/06/18 08:25:13;;;;;;;;;8.00;8.00;;;;;28.38;56.70;-19958.75;4935269;28;45372;-73
2023/06/18 08:27:38;;;;;;;;;9.67;9.33;;;;;28.35;57.27;-19957.94;4935038;28;45367;-73
2023/06/18 08:30:05;;;;;;;;;9.00;9.00;;;;;28.55;56.51;-19963.22;4935759;28;45519;-73
2023/06/18 08:32:30;;;;;;;;;11.00;11.00;;;;;28.60;55.77;-19964.41;4917655;28;47937;-73
2023/06/18 08:34:55;;;;;;;;;10.00;8.00;;;;;28.72;55.39;-19967.44;4918128;28;45316;-73
2023/06/18 08:37:21;;;;;;;;;10.00;10.00;;;;;28.86;54.79;-19971.13;4917644;28;50737;-73
2023/06/18 08:39:46;;;;;;;;;9.00;9.00;;;;;29.04;54.91;-19975.88;4934879;28;45487;-73
2023/06/18 08:42:17;;;;;;;;;9.00;9.00;;;;;29.15;55.01;-19978.50;4917374;28;47445;-73
2023/06/18 08:44:45;;;;;;;;;10.33;10.33;;;;;29.20;54.36;-19979.84;4935289;28;45455;-73
2023/06/18 08:47:10;;;;;;;;;12.00;11.00;;;;;29.02;54.53;-19975.34;4934511;28;45440;-73
2023/06/18 08:49:40;;;;;;;;;13.33;11.33;;;;;29.04;55.32;-19975.75;4935068;28;45489;-73
2023/06/18 08:52:08;;;;;;;;;11.00;10.67;;;;;29.01;54.31;-19975.09;4934731;28;45497;-73
2023/06/18 08:54:35;;;;;;;;;12.67;12.67;;;;;29.00;54.66;-19974.69;4934648;28;45498;-72
2023/06/18 08:57:17;;;;;;;;;11.00;11.00;;;;;28.97;54.58;-19973.91;4934919;28;45427;-72
2023/06/18 08:59:42;;;;;;;;;12.67;12.00;;;;;28.92;54.38;-19972.59;4934733;28;45522;-72
2023/06/18 09:02:10;;;;;;;;;13.67;13.67;;;;;28.83;54.11;-19970.47;4934724;28;47113;-73
2023/06/18 09:04:37;;;;;;;;;13.67;13.67;;;;;28.81;53.88;-19969.94;4934727;28;45442;-73
2023/06/18 09:07:02;;;;;;;;;11.33;11.33;;;;;28.79;52.98;-19969.41;4934427;28;45631;-73
2023/06/18 09:09:29;;;;;;;;;13.67;13.00;;;;;28.81;52.40;-19969.81;4935131;28;45487;-73
2023/06/18 09:11:55;;;;;;;;;12.67;12.33;;;;;28.81;52.17;-19969.81;4933616;28;46546;-72
2023/06/18 09:14:21;;;;;;;;;13.00;11.33;;;;;28.81;51.97;-19969.81;4934562;28;45420;-73
2023/06/18 09:16:46;;;;;;;;;11.67;11.67;;;;;28.85;51.19;-19970.88;4934965;28;45435;-72
2023/06/18 09:19:13;;;;;;;;;9.00;9.00;;;;;28.54;51.26;-19962.97;4934969;28;45431;-72
2023/06/18 09:21:42;;;;;;;;;10.67;9.67;;;;;28.71;51.31;-19967.19;4934458;28;46372;-72
2023/06/18 09:24:20;;;;;;;;;10.67;10.67;;;;;28.67;51.54;-19966.13;4934593;28;45530;-73
2023/06/18 09:26:59;;;;;;;;;13.33;10.67;;;;;28.58;51.68;-19964.00;4933872;28;45463;-73
2023/06/18 09:29:28;;;;;;;;;8.67;7.67;;;;;28.50;51.21;-19961.78;4934790;28;45498;-73
2023/06/18 09:31:53;;;;;;;;;7.00;7.00;;;;;28.32;51.38;-19957.28;4934059;28;46986;-73
2023/06/18 09:34:19;;;;;;;;;9.67;9.67;;;;;28.46;51.61;-19960.84;4933578;28;45350;-72
2023/06/18 09:36:47;;;;;;;;;10.67;9.00;;;;;28.50;52.12;-19961.91;4934469;28;45476;-72
2023/06/18 09:39:17;;;;;;;;;9.00;9.00;;;;;28.50;51.67;-19961.91;4934708;28;45375;-72
2023/06/18 09:41:44;;;;;;;;;8.67;7.33;;;;;28.64;51.78;-19965.34;4934024;28;47104;-72
2023/06/18 09:44:11;;;;;;;;;8.67;8.67;;;;;28.70;51.43;-19967.03;4934559;28;45464;-72
2023/06/18 09:46:36;;;;;;;;;10.33;9.33;;;;;28.83;51.50;-19970.34;5013112;28;45443;-72
2023/06/18 09:49:02;;;;;;;;;11.00;10.33;;;;;28.91;51.25;-19972.31;4934504;28;45468;-72
2023/06/18 09:51:27;;;;;;;;;11.00;7.00;;;;;29.07;51.03;-19976.53;4932885;28;48597;-72
2023/06/18 09:53:57;;;;;;;;;10.00;9.00;;;;;29.40;50.44;-19985.09;4934139;28;45346;-73
2023/06/18 09:56:23;;;;;;;;;9.00;9.00;;;;;29.71;49.50;-19993.00;4934353;28;45534;-73
2023/06/18 09:58:50;;;;;;;;;8.00;8.00;;;;;29.97;48.97;-19999.56;4934635;28;45457;-72
2023/06/18 10:01:17;;;;;;;;;10.33;9.33;;;;;30.02;48.43;-20001.03;4933372;28;46272;-72
2023/06/18 10:03:45;;;;;;;;;8.67;8.67;;;;;29.98;48.58;-19999.97;4932957;28;45418;-73
2023/06/18 10:06:20;;;;;;;;;11.67;11.00;;;;;30.15;48.52;-20002.31;4934109;28;45367;-72
2023/06/18 10:08:49;;;;;;;;;12.00;11.00;;;;;30.22;47.95;-20004.00;4934767;28;45398;-74
2023/06/18 10:11:15;;;;;;;;;8.33;8.33;;;;;30.37;47.69;-20007.97;4933711;28;46340;-73
2023/06/18 10:13:53;;;;;;;;;11.67;11.67;;;;;30.34;47.72;-20007.16;4916349;28;45553;-73
2023/06/18 10:16:20;;;;;;;;;14.33;14.00;;;;;30.22;47.41;-19662.81;4933475;28;45389;-73
2023/06/18 10:19:14;;;;;;;;;14.67;13.67;;;;;30.06;47.41;-19317.41;4934018;28;45447;-73
2023/06/18 10:21:57;;;;;;;;;12.67;12.33;;;;;29.94;47.55;-18973.16;4916328;28;48200;-73
2023/06/18 10:24:46;;;;;;;;;14.00;14.00;;;;;29.86;47.34;-18971.31;4935551;28;45432;-73
2023/06/18 10:27:14;;;;;;;;;15.67;14.67;;;;;29.91;47.69;-18631.16;4943217;28;45466;-73
2023/06/18 10:29:40;;;;;;;;;12.33;12.00;;;;;29.71;47.86;-18626.44;4936545;28;45585;-73
2023/06/18 10:32:06;;;;;;;;;16.33;14.67;;;;;29.85;47.58;-18629.94;4936323;28;45500;-73
2023/06/18 10:34:32;;;;;;;;;16.67;14.00;;;;;29.84;47.82;-18629.59;4935624;28;45406;-73
2023/06/18 10:36:59;;;;;;;;;15.00;15.00;;;;;29.84;47.86;-18288.44;4936625;28;45407;-73
2023/06/18 10:39:26;;;;;;;;;13.67;13.67;;;;;29.98;47.43;-18632.84;4936982;28;45347;-73
2023/06/18 10:41:52;;;;;;;;;14.33;14.33;;;;;30.21;47.32;-18638.25;4936321;28;47191;-73
2023/06/18 10:44:48;;;;;;;;;18.67;16.33;;;;;30.68;46.93;-18991.03;4936309;28;45476;-73
2023/06/18 10:47:18;;;;;;;;;17.00;15.67;;;;;31.18;45.42;-18319.06;4936316;28;45439;-73
2023/06/18 10:50:02;;;;;;;;;18.00;16.00;;;;;31.40;45.49;-18324.25;4935836;28;45399;-73
2023/06/18 10:52:39;;;;;;;;;19.00;16.00;;;;;31.77;45.70;-18332.69;4935708;28;47516;-73
2023/06/18 10:55:15;;;;;;;;;18.33;15.33;;;;;32.30;44.10;-17659.69;4924435;28;45415;-74
2023/06/18 10:57:43;;;;;;;;;14.00;14.00;;;;;32.96;43.64;-17673.97;4932582;28;45440;-74
2023/06/18 11:00:13;;;;;;;;;14.33;14.33;;;;;33.53;43.19;-16999.81;4920612;28;45739;-74
2023/06/18 11:02:39;;;;;;;;;16.00;15.67;;;;;34.02;40.67;-15291.47;4929200;28;47178;-74
2023/06/18 11:05:05;;;;;;;;;15.00;15.00;;;;;34.46;40.79;-14267.13;4955745;28;45434;-75
2023/06/18 11:07:31;;;;;;;;;16.00;16.00;;;;;34.91;39.98;-11863.22;4929773;28;45517;-74
2023/06/18 11:10:04;;;;;;;;;18.33;18.33;;;;;35.29;38.51;-9108.94;4932720;28;45497;-74
2023/06/18 11:12:31;;;;;;;;;17.00;16.33;;;;;35.46;37.83;-4966.72;4923142;28;46069;-74
2023/06/18 11:15:16;;;;;;;;;16.33;16.33;;;;;35.58;37.21;219.81;4932187;28;45514;-74
2023/06/18 11:17:53;;;;;;;;;19.33;16.67;;;;;35.75;37.46;2298.06;4920983;28;45471;-74
2023/06/18 11:20:23;;;;;;;;;17.00;14.33;;;;;36.19;36.22;5769.09;4932638;28;45861;-74
2023/06/18 11:22:55;;;;;;;;;13.33;13.33;;;;;36.49;36.49;7509.13;4920730;28;45781;-75